Orbital elements of FENGYUN 1C DEB
| Launched | 9 May 1999 |
| Flight ended | – |
| Launch site | Taiyuan Space Center, PRC |
| Owner | People's Republic of China |
| NORAD ID | 29760 |
| Date fetched |
Epoch osculation |
Inc. [°] |
Ecc. | RA asc node [hr] |
Arg Peri. [°] |
Mean anom [°] |
Mean motion [rev/day] |
Abs. mag |
| Date fetched |
Epoch osculation |
Inc. [°] |
Ecc. | RA asc node [hr] |
Arg Peri. [°] |
Mean anom [°] |
Mean motion [rev/day] |
Abs. mag |
| 2026 May 05 17:57 | 2026 May 04 10:12:37 | 98.7650 | 0.01315 | 8.5054 | 130.9151 | 230.3492 | 14.08399 | – |
| 2026 May 04 17:57 | 2026 Apr 30 10:43:42 | 98.7651 | 0.01313 | 8.2475 | 142.0800 | 230.3492 | 14.08399 | – |
| 2026 May 03 17:57 | 2026 Apr 30 10:43:42 | 98.7651 | 0.01313 | 8.2475 | 142.0800 | 230.3492 | 14.08399 | – |
| 2026 May 02 17:57 | 2026 Apr 30 10:43:42 | 98.7651 | 0.01313 | 8.2475 | 142.0800 | 230.3492 | 14.08399 | – |
| 2026 May 01 17:56 | 2026 Apr 30 10:43:42 | 98.7651 | 0.01313 | 8.2475 | 142.0800 | 230.3492 | 14.08399 | – |
| 2026 Apr 30 17:56 | 2026 Apr 30 10:43:42 | 98.7651 | 0.01313 | 8.2475 | 142.0800 | 230.3492 | 14.08399 | – |
| 2026 Apr 29 17:57 | 2026 Apr 24 11:30:18 | 98.7655 | 0.01310 | 7.8607 | 158.8567 | 230.3492 | 14.08399 | – |
| 2026 Apr 28 17:56 | 2026 Apr 24 11:30:18 | 98.7655 | 0.01310 | 7.8607 | 158.8567 | 230.3492 | 14.08399 | – |
| 2026 Apr 27 17:58 | 2026 Apr 24 11:30:18 | 98.7655 | 0.01310 | 7.8607 | 158.8567 | 230.3492 | 14.08399 | – |
| 2026 Apr 26 17:58 | 2026 Apr 24 11:30:18 | 98.7655 | 0.01310 | 7.8607 | 158.8567 | 230.3492 | 14.08399 | – |
| 2026 Apr 25 17:58 | 2026 Apr 24 11:30:18 | 98.7655 | 0.01310 | 7.8607 | 158.8567 | 230.3492 | 14.08399 | – |
| 2026 Apr 24 17:59 | 2026 Apr 24 11:30:18 | 98.7655 | 0.01310 | 7.8607 | 158.8567 | 230.3492 | 14.08399 | – |
| 2026 Apr 23 17:57 | 2026 Apr 18 07:09:59 | 98.7659 | 0.01306 | 7.4601 | 176.2701 | 230.3492 | 14.08399 | – |
| 2026 Apr 22 17:57 | 2026 Apr 18 07:09:59 | 98.7659 | 0.01306 | 7.4601 | 176.2701 | 230.3492 | 14.08399 | – |
| 2026 Apr 21 17:57 | 2026 Apr 18 07:09:59 | 98.7659 | 0.01306 | 7.4601 | 176.2701 | 230.3492 | 14.08399 | – |
| 2026 Apr 20 17:57 | 2026 Apr 18 07:09:59 | 98.7659 | 0.01306 | 7.4601 | 176.2701 | 230.3492 | 14.08399 | – |
| 2026 Apr 19 17:58 | 2026 Apr 18 07:09:59 | 98.7659 | 0.01306 | 7.4601 | 176.2701 | 230.3492 | 14.08399 | – |
| 2026 Apr 18 17:56 | 2026 Apr 12 23:17:15 | 98.7657 | 0.01304 | 7.1148 | 191.3199 | 230.3492 | 14.08399 | – |
| 2026 Apr 16 17:57 | 2026 Apr 12 23:17:15 | 98.7657 | 0.01304 | 7.1148 | 191.3199 | 230.3492 | 14.08399 | – |
| 2026 Apr 14 17:57 | 2026 Apr 12 23:17:15 | 98.7657 | 0.01304 | 7.1148 | 191.3199 | 230.3492 | 14.08399 | – |
| 2026 Apr 13 17:57 | 2026 Apr 12 23:17:15 | 98.7657 | 0.01304 | 7.1148 | 191.3199 | 230.3492 | 14.08399 | – |
| 2026 Apr 12 17:57 | 2026 Apr 08 13:34:28 | 98.7660 | 0.01301 | 6.8293 | 203.7888 | 230.3492 | 14.08399 | – |
| 2026 Apr 11 17:57 | 2026 Apr 08 13:34:28 | 98.7660 | 0.01301 | 6.8293 | 203.7888 | 230.3492 | 14.08399 | – |
| 2026 Apr 10 17:58 | 2026 Apr 08 13:34:28 | 98.7660 | 0.01301 | 6.8293 | 203.7888 | 230.3492 | 14.08399 | – |
| 2026 Apr 09 18:01 | 2026 Apr 08 13:34:28 | 98.7660 | 0.01301 | 6.8293 | 203.7888 | 230.3492 | 14.08399 | – |
| 2026 Apr 08 17:57 | 2026 Apr 08 13:34:28 | 98.7660 | 0.01301 | 6.8293 | 203.7888 | 230.3492 | 14.08399 | – |